sensor_id;sensor_type;location;lat;lon;timestamp;temperature;humidity
23311;DHT22;11828;51.508;18.118;2022-11-25T00:01:09;22.90;29.70
23311;DHT22;11828;51.508;18.118;2022-11-25T00:03:41;22.90;29.70
23311;DHT22;11828;51.508;18.118;2022-11-25T00:06:30;23.00;29.60
23311;DHT22;11828;51.508;18.118;2022-11-25T00:09:01;23.00;29.50
23311;DHT22;11828;51.508;18.118;2022-11-25T00:11:29;23.00;29.60
23311;DHT22;11828;51.508;18.118;2022-11-25T00:13:56;23.00;29.70
23311;DHT22;11828;51.508;18.118;2022-11-25T00:16:24;23.00;29.70
23311;DHT22;11828;51.508;18.118;2022-11-25T00:18:52;23.10;29.60
23311;DHT22;11828;51.508;18.118;2022-11-25T00:21:21;23.10;29.40
23311;DHT22;11828;51.508;18.118;2022-11-25T00:23:53;23.10;29.50
23311;DHT22;11828;51.508;18.118;2022-11-25T00:26:21;23.10;29.60
23311;DHT22;11828;51.508;18.118;2022-11-25T00:28:49;23.10;29.50
23311;DHT22;11828;51.508;18.118;2022-11-25T00:31:18;23.10;29.70
23311;DHT22;11828;51.508;18.118;2022-11-25T00:33:46;23.10;29.60
23311;DHT22;11828;51.508;18.118;2022-11-25T00:39:14;23.10;29.50
23311;DHT22;11828;51.508;18.118;2022-11-25T00:41:42;23.10;29.60
23311;DHT22;11828;51.508;18.118;2022-11-25T00:44:27;23.20;29.60
23311;DHT22;11828;51.508;18.118;2022-11-25T00:47:07;23.20;29.60
23311;DHT22;11828;51.508;18.118;2022-11-25T00:49:36;23.20;29.60
23311;DHT22;11828;51.508;18.118;2022-11-25T00:52:03;23.20;29.40
23311;DHT22;11828;51.508;18.118;2022-11-25T00:54:30;23.30;29.50
23311;DHT22;11828;51.508;18.118;2022-11-25T00:56:57;23.20;29.40
23311;DHT22;11828;51.508;18.118;2022-11-25T00:59:23;23.30;29.30
23311;DHT22;11828;51.508;18.118;2022-11-25T01:01:49;23.20;29.30
23311;DHT22;11828;51.508;18.118;2022-11-25T01:04:16;23.20;29.20
23311;DHT22;11828;51.508;18.118;2022-11-25T01:06:42;23.20;29.30
23311;DHT22;11828;51.508;18.118;2022-11-25T01:09:10;23.20;29.30
23311;DHT22;11828;51.508;18.118;2022-11-25T01:11:36;23.20;29.30
23311;DHT22;11828;51.508;18.118;2022-11-25T01:14:02;23.20;29.30
23311;DHT22;11828;51.508;18.118;2022-11-25T01:16:29;23.20;29.30
23311;DHT22;11828;51.508;18.118;2022-11-25T01:18:58;23.10;29.30
23311;DHT22;11828;51.508;18.118;2022-11-25T01:21:26;23.00;29.30
23311;DHT22;11828;51.508;18.118;2022-11-25T01:23:54;23.00;29.50
23311;DHT22;11828;51.508;18.118;2022-11-25T01:26:22;23.00;29.60
23311;DHT22;11828;51.508;18.118;2022-11-25T01:28:54;23.00;29.70
23311;DHT22;11828;51.508;18.118;2022-11-25T01:31:23;22.90;29.70
23311;DHT22;11828;51.508;18.118;2022-11-25T01:34:20;22.90;29.60
23311;DHT22;11828;51.508;18.118;2022-11-25T01:36:47;22.90;29.80
23311;DHT22;11828;51.508;18.118;2022-11-25T01:39:17;22.90;29.80
23311;DHT22;11828;51.508;18.118;2022-11-25T01:41:44;22.90;29.80
23311;DHT22;11828;51.508;18.118;2022-11-25T01:44:17;22.90;30.00
23311;DHT22;11828;51.508;18.118;2022-11-25T01:46:57;22.80;29.80
23311;DHT22;11828;51.508;18.118;2022-11-25T01:49:58;22.70;29.80
23311;DHT22;11828;51.508;18.118;2022-11-25T01:52:30;22.80;30.10
23311;DHT22;11828;51.508;18.118;2022-11-25T01:55:03;22.70;30.00
23311;DHT22;11828;51.508;18.118;2022-11-25T01:57:42;22.70;30.00
23311;DHT22;11828;51.508;18.118;2022-11-25T02:00:11;22.70;30.10
23311;DHT22;11828;51.508;18.118;2022-11-25T02:02:38;22.70;30.20
23311;DHT22;11828;51.508;18.118;2022-11-25T02:05:09;22.60;30.10
23311;DHT22;11828;51.508;18.118;2022-11-25T02:07:40;22.60;30.10
23311;DHT22;11828;51.508;18.118;2022-11-25T02:10:11;22.60;30.20
23311;DHT22;11828;51.508;18.118;2022-11-25T02:12:40;22.60;30.00
23311;DHT22;11828;51.508;18.118;2022-11-25T02:15:08;22.50;30.00
23311;DHT22;11828;51.508;18.118;2022-11-25T02:17:34;22.50;30.10
23311;DHT22;11828;51.508;18.118;2022-11-25T02:20:09;22.50;30.20
23311;DHT22;11828;51.508;18.118;2022-11-25T02:22:56;22.50;30.40
23311;DHT22;11828;51.508;18.118;2022-11-25T02:25:37;22.40;30.80
23311;DHT22;11828;51.508;18.118;2022-11-25T02:28:20;22.40;30.70
23311;DHT22;11828;51.508;18.118;2022-11-25T02:30:48;22.40;30.60
23311;DHT22;11828;51.508;18.118;2022-11-25T02:33:15;22.40;30.60
23311;DHT22;11828;51.508;18.118;2022-11-25T02:35:43;22.30;30.40
23311;DHT22;11828;51.508;18.118;2022-11-25T02:41:09;22.30;30.80
23311;DHT22;11828;51.508;18.118;2022-11-25T02:43:38;22.30;30.70
23311;DHT22;11828;51.508;18.118;2022-11-25T02:46:13;22.30;30.90
23311;DHT22;11828;51.508;18.118;2022-11-25T02:48:41;22.30;31.10
23311;DHT22;11828;51.508;18.118;2022-11-25T02:51:09;22.30;31.10
23311;DHT22;11828;51.508;18.118;2022-11-25T02:53:37;22.40;31.10
23311;DHT22;11828;51.508;18.118;2022-11-25T02:56:04;22.40;31.10
23311;DHT22;11828;51.508;18.118;2022-11-25T02:58:30;22.40;30.90
23311;DHT22;11828;51.508;18.118;2022-11-25T03:00:56;22.50;30.90
23311;DHT22;11828;51.508;18.118;2022-11-25T03:03:22;22.40;30.80
23311;DHT22;11828;51.508;18.118;2022-11-25T03:05:48;22.40;30.70
23311;DHT22;11828;51.508;18.118;2022-11-25T03:08:14;22.50;30.80
23311;DHT22;11828;51.508;18.118;2022-11-25T03:10:41;22.40;30.90
23311;DHT22;11828;51.508;18.118;2022-11-25T03:13:07;22.40;30.90
23311;DHT22;11828;51.508;18.118;2022-11-25T03:15:34;22.40;30.80
23311;DHT22;11828;51.508;18.118;2022-11-25T03:18:01;22.30;30.90
23311;DHT22;11828;51.508;18.118;2022-11-25T03:20:28;22.30;31.00
23311;DHT22;11828;51.508;18.118;2022-11-25T03:22:54;22.40;31.10
23311;DHT22;11828;51.508;18.118;2022-11-25T03:25:20;22.40;31.00
23311;DHT22;11828;51.508;18.118;2022-11-25T03:27:46;22.30;31.00
23311;DHT22;11828;51.508;18.118;2022-11-25T03:30:19;22.40;31.00
23311;DHT22;11828;51.508;18.118;2022-11-25T03:32:48;22.30;30.90
23311;DHT22;11828;51.508;18.118;2022-11-25T03:35:15;22.30;30.90
23311;DHT22;11828;51.508;18.118;2022-11-25T03:37:41;22.30;31.10
23311;DHT22;11828;51.508;18.118;2022-11-25T03:40:09;22.20;31.00
23311;DHT22;11828;51.508;18.118;2022-11-25T03:42:37;22.20;31.10
23311;DHT22;11828;51.508;18.118;2022-11-25T03:45:04;22.20;31.10
23311;DHT22;11828;51.508;18.118;2022-11-25T03:47:31;22.20;31.40
23311;DHT22;11828;51.508;18.118;2022-11-25T03:49:58;22.20;31.60
23311;DHT22;11828;51.508;18.118;2022-11-25T03:52:24;22.30;31.40
23311;DHT22;11828;51.508;18.118;2022-11-25T03:54:50;22.30;31.20
23311;DHT22;11828;51.508;18.118;2022-11-25T03:57:16;22.40;31.10
23311;DHT22;11828;51.508;18.118;2022-11-25T03:59:42;22.40;31.80
23311;DHT22;11828;51.508;18.118;2022-11-25T04:02:08;22.40;31.20
23311;DHT22;11828;51.508;18.118;2022-11-25T04:04:34;22.40;31.10
23311;DHT22;11828;51.508;18.118;2022-11-25T04:07:01;22.50;31.10
23311;DHT22;11828;51.508;18.118;2022-11-25T04:09:27;22.50;31.10
23311;DHT22;11828;51.508;18.118;2022-11-25T04:11:53;22.50;31.10
23311;DHT22;11828;51.508;18.118;2022-11-25T04:14:37;22.50;30.80
23311;DHT22;11828;51.508;18.118;2022-11-25T04:17:03;22.60;30.80
23311;DHT22;11828;51.508;18.118;2022-11-25T04:19:30;22.60;31.00
23311;DHT22;11828;51.508;18.118;2022-11-25T04:21:56;22.50;30.80
23311;DHT22;11828;51.508;18.118;2022-11-25T04:24:24;22.60;30.90
23311;DHT22;11828;51.508;18.118;2022-11-25T04:26:50;22.60;31.00
23311;DHT22;11828;51.508;18.118;2022-11-25T04:29:16;22.50;31.00
23311;DHT22;11828;51.508;18.118;2022-11-25T04:31:42;22.60;30.80
23311;DHT22;11828;51.508;18.118;2022-11-25T04:34:09;22.60;30.80
23311;DHT22;11828;51.508;18.118;2022-11-25T04:36:34;22.60;30.80
23311;DHT22;11828;51.508;18.118;2022-11-25T04:39:01;22.60;30.70
23311;DHT22;11828;51.508;18.118;2022-11-25T04:41:27;22.70;30.80
23311;DHT22;11828;51.508;18.118;2022-11-25T04:43:53;22.70;30.70
23311;DHT22;11828;51.508;18.118;2022-11-25T04:46:22;22.70;30.70
23311;DHT22;11828;51.508;18.118;2022-11-25T04:48:50;22.80;30.60
23311;DHT22;11828;51.508;18.118;2022-11-25T04:51:16;22.80;30.30
23311;DHT22;11828;51.508;18.118;2022-11-25T04:53:42;22.70;30.30
23311;DHT22;11828;51.508;18.118;2022-11-25T04:56:09;22.60;30.40
23311;DHT22;11828;51.508;18.118;2022-11-25T04:58:41;22.60;30.60
23311;DHT22;11828;51.508;18.118;2022-11-25T05:01:25;22.50;30.70
23311;DHT22;11828;51.508;18.118;2022-11-25T05:03:52;22.50;30.80
23311;DHT22;11828;51.508;18.118;2022-11-25T05:06:17;22.50;31.00
23311;DHT22;11828;51.508;18.118;2022-11-25T05:08:47;22.60;31.00
23311;DHT22;11828;51.508;18.118;2022-11-25T05:11:14;22.60;31.50
23311;DHT22;11828;51.508;18.118;2022-11-25T05:13:40;22.60;30.90
23311;DHT22;11828;51.508;18.118;2022-11-25T05:16:06;22.60;30.90
23311;DHT22;11828;51.508;18.118;2022-11-25T05:18:32;22.60;31.10
23311;DHT22;11828;51.508;18.118;2022-11-25T05:21:02;22.60;30.80
23311;DHT22;11828;51.508;18.118;2022-11-25T05:23:30;22.60;30.80
23311;DHT22;11828;51.508;18.118;2022-11-25T05:26:00;22.60;30.80
23311;DHT22;11828;51.508;18.118;2022-11-25T05:28:28;22.50;30.80
23311;DHT22;11828;51.508;18.118;2022-11-25T05:30:54;22.60;30.90
23311;DHT22;11828;51.508;18.118;2022-11-25T05:33:21;22.50;30.90
23311;DHT22;11828;51.508;18.118;2022-11-25T05:35:57;22.50;30.80
23311;DHT22;11828;51.508;18.118;2022-11-25T05:38:26;22.50;31.00
23311;DHT22;11828;51.508;18.118;2022-11-25T05:40:52;22.50;31.00
23311;DHT22;11828;51.508;18.118;2022-11-25T05:43:18;22.50;31.10
23311;DHT22;11828;51.508;18.118;2022-11-25T05:45:44;22.50;31.10
23311;DHT22;11828;51.508;18.118;2022-11-25T05:48:11;22.50;31.00
23311;DHT22;11828;51.508;18.118;2022-11-25T05:50:37;22.50;30.90
23311;DHT22;11828;51.508;18.118;2022-11-25T05:53:04;22.40;30.80
23311;DHT22;11828;51.508;18.118;2022-11-25T05:55:30;22.40;30.90
23311;DHT22;11828;51.508;18.118;2022-11-25T05:57:57;22.30;31.00
23311;DHT22;11828;51.508;18.118;2022-11-25T06:00:24;22.20;31.00
23311;DHT22;11828;51.508;18.118;2022-11-25T06:02:51;22.20;31.10
23311;DHT22;11828;51.508;18.118;2022-11-25T06:05:17;22.10;31.20
23311;DHT22;11828;51.508;18.118;2022-11-25T06:07:43;22.10;31.30
23311;DHT22;11828;51.508;18.118;2022-11-25T06:10:09;22.10;31.40
23311;DHT22;11828;51.508;18.118;2022-11-25T06:12:36;22.00;31.40
23311;DHT22;11828;51.508;18.118;2022-11-25T06:15:02;22.00;31.40
23311;DHT22;11828;51.508;18.118;2022-11-25T06:17:29;22.00;31.40
23311;DHT22;11828;51.508;18.118;2022-11-25T06:19:55;22.00;31.50
23311;DHT22;11828;51.508;18.118;2022-11-25T06:22:21;22.00;31.40
23311;DHT22;11828;51.508;18.118;2022-11-25T06:24:47;22.00;31.40
23311;DHT22;11828;51.508;18.118;2022-11-25T06:27:13;21.90;31.50
23311;DHT22;11828;51.508;18.118;2022-11-25T06:29:39;21.90;31.50
23311;DHT22;11828;51.508;18.118;2022-11-25T06:32:05;21.80;31.60
23311;DHT22;11828;51.508;18.118;2022-11-25T06:34:31;21.80;31.70
23311;DHT22;11828;51.508;18.118;2022-11-25T06:36:57;21.80;31.70
23311;DHT22;11828;51.508;18.118;2022-11-25T06:39:23;21.80;31.70
23311;DHT22;11828;51.508;18.118;2022-11-25T06:41:50;21.70;31.60
23311;DHT22;11828;51.508;18.118;2022-11-25T06:44:16;21.70;31.90
23311;DHT22;11828;51.508;18.118;2022-11-25T06:46:42;21.60;32.00
23311;DHT22;11828;51.508;18.118;2022-11-25T06:49:08;21.50;32.10
23311;DHT22;11828;51.508;18.118;2022-11-25T06:51:34;21.50;32.80
23311;DHT22;11828;51.508;18.118;2022-11-25T06:54:00;21.50;32.10
23311;DHT22;11828;51.508;18.118;2022-11-25T06:56:27;21.50;32.20
23311;DHT22;11828;51.508;18.118;2022-11-25T06:58:54;21.40;32.20
23311;DHT22;11828;51.508;18.118;2022-11-25T07:01:25;21.50;32.40
23311;DHT22;11828;51.508;18.118;2022-11-25T07:03:58;21.40;32.50
23311;DHT22;11828;51.508;18.118;2022-11-25T07:06:26;21.50;32.40
23311;DHT22;11828;51.508;18.118;2022-11-25T07:08:52;21.50;32.30
23311;DHT22;11828;51.508;18.118;2022-11-25T07:11:30;21.60;32.20
23311;DHT22;11828;51.508;18.118;2022-11-25T07:14:05;21.60;32.20
23311;DHT22;11828;51.508;18.118;2022-11-25T07:16:33;21.60;32.10
23311;DHT22;11828;51.508;18.118;2022-11-25T07:19:00;21.60;32.10
23311;DHT22;11828;51.508;18.118;2022-11-25T07:21:27;21.50;32.00
23311;DHT22;11828;51.508;18.118;2022-11-25T07:23:59;21.50;32.20
23311;DHT22;11828;51.508;18.118;2022-11-25T07:26:31;21.40;32.40
23311;DHT22;11828;51.508;18.118;2022-11-25T07:29:00;21.50;32.50
23311;DHT22;11828;51.508;18.118;2022-11-25T07:31:34;21.40;32.60
23311;DHT22;11828;51.508;18.118;2022-11-25T07:34:16;21.40;32.70
23311;DHT22;11828;51.508;18.118;2022-11-25T07:36:45;21.50;32.80
23311;DHT22;11828;51.508;18.118;2022-11-25T07:39:20;21.50;32.80
23311;DHT22;11828;51.508;18.118;2022-11-25T07:41:51;21.60;32.70
23311;DHT22;11828;51.508;18.118;2022-11-25T07:44:18;21.70;32.70
23311;DHT22;11828;51.508;18.118;2022-11-25T07:46:46;21.80;32.70
23311;DHT22;11828;51.508;18.118;2022-11-25T07:49:16;21.90;32.60
23311;DHT22;11828;51.508;18.118;2022-11-25T07:51:55;22.00;32.60
23311;DHT22;11828;51.508;18.118;2022-11-25T07:54:23;22.10;32.40
23311;DHT22;11828;51.508;18.118;2022-11-25T07:56:50;22.20;32.20
23311;DHT22;11828;51.508;18.118;2022-11-25T07:59:21;22.30;32.30
23311;DHT22;11828;51.508;18.118;2022-11-25T08:01:49;22.20;32.10
23311;DHT22;11828;51.508;18.118;2022-11-25T08:04:19;22.30;32.00
23311;DHT22;11828;51.508;18.118;2022-11-25T08:06:46;22.30;32.00
23311;DHT22;11828;51.508;18.118;2022-11-25T08:09:16;22.30;32.10
23311;DHT22;11828;51.508;18.118;2022-11-25T08:11:45;22.30;32.20
23311;DHT22;11828;51.508;18.118;2022-11-25T08:14:12;22.30;32.10
23311;DHT22;11828;51.508;18.118;2022-11-25T08:16:39;22.30;32.10
23311;DHT22;11828;51.508;18.118;2022-11-25T08:19:07;22.40;32.20
23311;DHT22;11828;51.508;18.118;2022-11-25T08:21:36;22.60;32.30
23311;DHT22;11828;51.508;18.118;2022-11-25T08:24:02;22.60;32.00
23311;DHT22;11828;51.508;18.118;2022-11-25T08:26:31;22.60;32.00
23311;DHT22;11828;51.508;18.118;2022-11-25T08:29:00;22.70;32.00
23311;DHT22;11828;51.508;18.118;2022-11-25T08:31:29;22.80;31.90
23311;DHT22;11828;51.508;18.118;2022-11-25T08:33:59;22.80;31.80
23311;DHT22;11828;51.508;18.118;2022-11-25T08:36:27;22.80;31.80
23311;DHT22;11828;51.508;18.118;2022-11-25T08:38:55;22.80;31.80
23311;DHT22;11828;51.508;18.118;2022-11-25T08:41:27;22.90;31.90
23311;DHT22;11828;51.508;18.118;2022-11-25T08:43:56;23.00;32.30
23311;DHT22;11828;51.508;18.118;2022-11-25T08:46:27;23.00;31.80
23311;DHT22;11828;51.508;18.118;2022-11-25T08:48:58;23.10;31.60
23311;DHT22;11828;51.508;18.118;2022-11-25T08:51:28;23.10;31.50
23311;DHT22;11828;51.508;18.118;2022-11-25T08:53:56;23.10;31.80
23311;DHT22;11828;51.508;18.118;2022-11-25T08:56:23;23.10;31.70
23311;DHT22;11828;51.508;18.118;2022-11-25T08:58:50;23.10;31.90
23311;DHT22;11828;51.508;18.118;2022-11-25T09:01:17;23.20;31.80
23311;DHT22;11828;51.508;18.118;2022-11-25T09:03:47;23.20;31.70
23311;DHT22;11828;51.508;18.118;2022-11-25T09:06:16;23.10;31.70
23311;DHT22;11828;51.508;18.118;2022-11-25T09:08:43;23.10;31.90
23311;DHT22;11828;51.508;18.118;2022-11-25T09:11:10;23.00;31.90
23311;DHT22;11828;51.508;18.118;2022-11-25T09:13:36;23.10;32.00
23311;DHT22;11828;51.508;18.118;2022-11-25T09:16:02;23.10;32.10
23311;DHT22;11828;51.508;18.118;2022-11-25T09:18:29;23.10;32.10
23311;DHT22;11828;51.508;18.118;2022-11-25T09:20:57;23.00;32.20
23311;DHT22;11828;51.508;18.118;2022-11-25T09:23:24;23.10;32.20
23311;DHT22;11828;51.508;18.118;2022-11-25T09:25:52;23.20;32.20
23311;DHT22;11828;51.508;18.118;2022-11-25T09:28:19;23.30;32.20
23311;DHT22;11828;51.508;18.118;2022-11-25T09:30:46;23.40;32.10
23311;DHT22;11828;51.508;18.118;2022-11-25T09:33:12;23.50;32.00
23311;DHT22;11828;51.508;18.118;2022-11-25T09:35:38;23.70;31.80
23311;DHT22;11828;51.508;18.118;2022-11-25T09:38:04;23.60;31.70
23311;DHT22;11828;51.508;18.118;2022-11-25T09:41:17;23.90;31.60
23311;DHT22;11828;51.508;18.118;2022-11-25T09:47:47;24.20;31.00
23311;DHT22;11828;51.508;18.118;2022-11-25T09:51:12;24.20;31.00
23311;DHT22;11828;51.508;18.118;2022-11-25T09:53:53;24.20;30.90
23311;DHT22;11828;51.508;18.118;2022-11-25T09:56:24;24.40;31.20
23311;DHT22;11828;51.508;18.118;2022-11-25T09:59:04;24.20;31.40
23311;DHT22;11828;51.508;18.118;2022-11-25T10:01:46;24.40;30.60
23311;DHT22;11828;51.508;18.118;2022-11-25T10:04:24;24.40;31.20
23311;DHT22;11828;51.508;18.118;2022-11-25T10:06:57;24.40;31.80
23311;DHT22;11828;51.508;18.118;2022-11-25T10:09:29;24.50;31.00
23311;DHT22;11828;51.508;18.118;2022-11-25T10:12:15;24.60;31.10
23311;DHT22;11828;51.508;18.118;2022-11-25T10:14:47;24.60;31.00
23311;DHT22;11828;51.508;18.118;2022-11-25T10:20:18;24.60;31.10
23311;DHT22;11828;51.508;18.118;2022-11-25T10:22:52;24.70;31.00
23311;DHT22;11828;51.508;18.118;2022-11-25T10:25:28;24.80;30.90
23311;DHT22;11828;51.508;18.118;2022-11-25T10:28:18;24.80;30.80
23311;DHT22;11828;51.508;18.118;2022-11-25T10:31:15;24.90;30.70
23311;DHT22;11828;51.508;18.118;2022-11-25T10:33:48;25.00;30.80
23311;DHT22;11828;51.508;18.118;2022-11-25T10:36:23;25.00;30.80
23311;DHT22;11828;51.508;18.118;2022-11-25T10:38:58;25.00;30.70
23311;DHT22;11828;51.508;18.118;2022-11-25T10:41:30;25.10;30.60
23311;DHT22;11828;51.508;18.118;2022-11-25T10:43:58;25.20;30.60
23311;DHT22;11828;51.508;18.118;2022-11-25T10:49:29;25.10;30.50
23311;DHT22;11828;51.508;18.118;2022-11-25T10:52:05;25.10;30.50
23311;DHT22;11828;51.508;18.118;2022-11-25T10:54:34;25.10;30.60
23311;DHT22;11828;51.508;18.118;2022-11-25T10:57:02;25.10;30.60
23311;DHT22;11828;51.508;18.118;2022-11-25T10:59:37;25.20;30.60
23311;DHT22;11828;51.508;18.118;2022-11-25T11:07:45;25.20;30.40
23311;DHT22;11828;51.508;18.118;2022-11-25T11:10:24;25.30;30.50
23311;DHT22;11828;51.508;18.118;2022-11-25T11:12:57;25.30;30.40
23311;DHT22;11828;51.508;18.118;2022-11-25T11:15:43;25.40;30.40
23311;DHT22;11828;51.508;18.118;2022-11-25T11:21:04;25.50;30.50
23311;DHT22;11828;51.508;18.118;2022-11-25T11:23:47;25.50;30.20
23311;DHT22;11828;51.508;18.118;2022-11-25T11:26:41;25.40;30.10
23311;DHT22;11828;51.508;18.118;2022-11-25T11:29:15;25.40;30.50
23311;DHT22;11828;51.508;18.118;2022-11-25T11:31:47;25.30;30.40
23311;DHT22;11828;51.508;18.118;2022-11-25T11:37:41;25.40;30.60
23311;DHT22;11828;51.508;18.118;2022-11-25T11:49:08;25.60;30.20
23311;DHT22;11828;51.508;18.118;2022-11-25T11:54:42;25.50;30.40
23311;DHT22;11828;51.508;18.118;2022-11-25T12:00:04;25.50;30.50
23311;DHT22;11828;51.508;18.118;2022-11-25T12:05:32;25.60;30.60
23311;DHT22;11828;51.508;18.118;2022-11-25T12:10:44;25.70;30.40
23311;DHT22;11828;51.508;18.118;2022-11-25T12:13:34;25.60;30.40
23311;DHT22;11828;51.508;18.118;2022-11-25T12:16:29;25.60;30.70
23311;DHT22;11828;51.508;18.118;2022-11-25T12:28:02;25.80;30.60
23311;DHT22;11828;51.508;18.118;2022-11-25T12:30:40;25.80;30.60
23311;DHT22;11828;51.508;18.118;2022-11-25T12:33:14;25.80;30.70
23311;DHT22;11828;51.508;18.118;2022-11-25T12:36:10;25.80;30.80
23311;DHT22;11828;51.508;18.118;2022-11-25T12:38:54;25.80;30.90
23311;DHT22;11828;51.508;18.118;2022-11-25T12:41:41;25.80;30.80
23311;DHT22;11828;51.508;18.118;2022-11-25T12:47:36;26.00;30.80
23311;DHT22;11828;51.508;18.118;2022-11-25T12:50:02;26.10;30.80
23311;DHT22;11828;51.508;18.118;2022-11-25T12:52:45;26.10;30.60
23311;DHT22;11828;51.508;18.118;2022-11-25T12:55:26;26.10;30.60
23311;DHT22;11828;51.508;18.118;2022-11-25T13:00:40;26.00;30.50
23311;DHT22;11828;51.508;18.118;2022-11-25T13:03:38;26.00;30.60
23311;DHT22;11828;51.508;18.118;2022-11-25T13:09:31;26.00;30.70
23311;DHT22;11828;51.508;18.118;2022-11-25T13:15:28;26.00;30.60
23311;DHT22;11828;51.508;18.118;2022-11-25T13:18:12;26.00;30.50
23311;DHT22;11828;51.508;18.118;2022-11-25T13:20:49;26.00;30.50
23311;DHT22;11828;51.508;18.118;2022-11-25T13:25:44;25.90;30.60
23311;DHT22;11828;51.508;18.118;2022-11-25T13:28:34;25.90;30.80
23311;DHT22;11828;51.508;18.118;2022-11-25T13:31:15;25.90;30.90
23311;DHT22;11828;51.508;18.118;2022-11-25T13:36:20;25.80;31.40
23311;DHT22;11828;51.508;18.118;2022-11-25T13:46:52;25.60;31.20
23311;DHT22;11828;51.508;18.118;2022-11-25T13:54:51;25.70;31.10
23311;DHT22;11828;51.508;18.118;2022-11-25T13:57:30;25.70;31.10
23311;DHT22;11828;51.508;18.118;2022-11-25T14:02:46;25.70;31.20
23311;DHT22;11828;51.508;18.118;2022-11-25T14:05:36;25.80;31.20
23311;DHT22;11828;51.508;18.118;2022-11-25T14:08:41;25.80;31.20
23311;DHT22;11828;51.508;18.118;2022-11-25T14:14:26;25.80;31.10
23311;DHT22;11828;51.508;18.118;2022-11-25T14:17:27;25.80;31.00
23311;DHT22;11828;51.508;18.118;2022-11-25T14:20:02;25.90;31.10
23311;DHT22;11828;51.508;18.118;2022-11-25T14:26:07;25.80;31.10
23311;DHT22;11828;51.508;18.118;2022-11-25T14:28:43;25.70;31.20
23311;DHT22;11828;51.508;18.118;2022-11-25T14:31:17;25.70;31.30
23311;DHT22;11828;51.508;18.118;2022-11-25T14:33:54;25.60;31.30
23311;DHT22;11828;51.508;18.118;2022-11-25T14:36:26;25.60;31.50
23311;DHT22;11828;51.508;18.118;2022-11-25T14:39:03;25.60;31.60
23311;DHT22;11828;51.508;18.118;2022-11-25T14:41:35;25.60;31.60
23311;DHT22;11828;51.508;18.118;2022-11-25T14:44:09;25.60;31.50
23311;DHT22;11828;51.508;18.118;2022-11-25T14:46:56;25.60;31.60
23311;DHT22;11828;51.508;18.118;2022-11-25T14:49:23;25.50;31.80
23311;DHT22;11828;51.508;18.118;2022-11-25T14:51:50;25.50;31.80
23311;DHT22;11828;51.508;18.118;2022-11-25T14:54:19;25.50;31.90
23311;DHT22;11828;51.508;18.118;2022-11-25T14:56:47;25.50;31.90
23311;DHT22;11828;51.508;18.118;2022-11-25T14:59:14;25.60;31.90
23311;DHT22;11828;51.508;18.118;2022-11-25T15:01:53;25.50;31.80
23311;DHT22;11828;51.508;18.118;2022-11-25T15:04:24;25.60;31.90
23311;DHT22;11828;51.508;18.118;2022-11-25T15:06:55;25.50;31.90
23311;DHT22;11828;51.508;18.118;2022-11-25T15:09:35;25.50;31.90
23311;DHT22;11828;51.508;18.118;2022-11-25T15:12:04;25.60;31.90
23311;DHT22;11828;51.508;18.118;2022-11-25T15:14:34;25.60;31.80
23311;DHT22;11828;51.508;18.118;2022-11-25T15:17:07;25.60;31.80
23311;DHT22;11828;51.508;18.118;2022-11-25T15:19:34;25.60;31.80
23311;DHT22;11828;51.508;18.118;2022-11-25T15:22:03;25.60;31.70
23311;DHT22;11828;51.508;18.118;2022-11-25T15:24:40;25.60;31.70
23311;DHT22;11828;51.508;18.118;2022-11-25T15:27:15;25.60;31.70
23311;DHT22;11828;51.508;18.118;2022-11-25T15:29:43;25.70;31.80
23311;DHT22;11828;51.508;18.118;2022-11-25T15:32:31;25.70;31.80
23311;DHT22;11828;51.508;18.118;2022-11-25T15:34:59;25.70;31.90
23311;DHT22;11828;51.508;18.118;2022-11-25T15:37:27;25.60;31.70
23311;DHT22;11828;51.508;18.118;2022-11-25T15:40:32;25.60;31.90
23311;DHT22;11828;51.508;18.118;2022-11-25T15:43:21;25.50;32.20
23311;DHT22;11828;51.508;18.118;2022-11-25T15:45:49;25.40;32.20
23311;DHT22;11828;51.508;18.118;2022-11-25T15:48:31;25.50;32.20
23311;DHT22;11828;51.508;18.118;2022-11-25T15:51:24;25.50;32.20
23311;DHT22;11828;51.508;18.118;2022-11-25T15:54:05;25.50;32.20
23311;DHT22;11828;51.508;18.118;2022-11-25T15:56:42;25.50;32.00
23311;DHT22;11828;51.508;18.118;2022-11-25T16:03:15;25.40;32.40
23311;DHT22;11828;51.508;18.118;2022-11-25T16:10:33;25.40;32.60
23311;DHT22;11828;51.508;18.118;2022-11-25T16:16:07;25.50;32.20
23311;DHT22;11828;51.508;18.118;2022-11-25T16:21:16;25.50;32.00
23311;DHT22;11828;51.508;18.118;2022-11-25T16:23:47;25.50;32.10
23311;DHT22;11828;51.508;18.118;2022-11-25T16:29:29;25.50;32.30
23311;DHT22;11828;51.508;18.118;2022-11-25T16:31:56;25.50;32.30
23311;DHT22;11828;51.508;18.118;2022-11-25T16:34:22;25.40;32.20
23311;DHT22;11828;51.508;18.118;2022-11-25T16:36:49;25.40;32.30
23311;DHT22;11828;51.508;18.118;2022-11-25T16:39:15;25.40;32.30
23311;DHT22;11828;51.508;18.118;2022-11-25T16:41:42;25.40;32.30
23311;DHT22;11828;51.508;18.118;2022-11-25T16:44:17;25.40;32.50
23311;DHT22;11828;51.508;18.118;2022-11-25T16:46:44;25.30;32.40
23311;DHT22;11828;51.508;18.118;2022-11-25T16:49:13;25.30;32.50
23311;DHT22;11828;51.508;18.118;2022-11-25T16:51:40;25.30;32.60
23311;DHT22;11828;51.508;18.118;2022-11-25T16:54:06;25.30;32.50
23311;DHT22;11828;51.508;18.118;2022-11-25T16:56:35;25.40;32.60
23311;DHT22;11828;51.508;18.118;2022-11-25T16:59:02;25.30;32.40
23311;DHT22;11828;51.508;18.118;2022-11-25T17:01:30;25.30;32.60
23311;DHT22;11828;51.508;18.118;2022-11-25T17:03:57;25.30;32.50
23311;DHT22;11828;51.508;18.118;2022-11-25T17:06:25;25.30;32.40
23311;DHT22;11828;51.508;18.118;2022-11-25T17:08:51;25.30;32.40
23311;DHT22;11828;51.508;18.118;2022-11-25T17:11:27;25.40;32.40
23311;DHT22;11828;51.508;18.118;2022-11-25T17:13:55;25.40;32.30
23311;DHT22;11828;51.508;18.118;2022-11-25T17:16:27;25.50;32.40
23311;DHT22;11828;51.508;18.118;2022-11-25T17:18:55;25.50;32.20
23311;DHT22;11828;51.508;18.118;2022-11-25T17:21:22;25.40;32.20
23311;DHT22;11828;51.508;18.118;2022-11-25T17:23:57;25.40;32.40
23311;DHT22;11828;51.508;18.118;2022-11-25T17:26:38;25.30;32.40
23311;DHT22;11828;51.508;18.118;2022-11-25T17:29:07;25.30;32.50
23311;DHT22;11828;51.508;18.118;2022-11-25T17:31:42;25.30;32.40
23311;DHT22;11828;51.508;18.118;2022-11-25T17:34:12;25.40;32.40
23311;DHT22;11828;51.508;18.118;2022-11-25T17:36:42;25.40;32.30